sensor_id;sensor_type;location;lat;lon;timestamp;P1;durP1;ratioP1;P2;durP2;ratioP2
26656;SDS011;14279;50.010;8.260;2023-02-11T00:01:31;49.50;;;27.70;;
26656;SDS011;14279;50.010;8.260;2023-02-11T00:03:59;38.70;;;23.50;;
26656;SDS011;14279;50.010;8.260;2023-02-11T00:06:25;47.83;;;26.83;;
26656;SDS011;14279;50.010;8.260;2023-02-11T00:08:51;50.50;;;26.90;;
26656;SDS011;14279;50.010;8.260;2023-02-11T00:11:18;47.57;;;27.23;;
26656;SDS011;14279;50.010;8.260;2023-02-11T00:13:44;52.23;;;27.87;;
26656;SDS011;14279;50.010;8.260;2023-02-11T00:16:11;50.87;;;28.10;;
26656;SDS011;14279;50.010;8.260;2023-02-11T00:18:39;46.83;;;26.80;;
26656;SDS011;14279;50.010;8.260;2023-02-11T00:21:14;43.77;;;26.37;;
26656;SDS011;14279;50.010;8.260;2023-02-11T00:23:42;44.17;;;26.30;;
26656;SDS011;14279;50.010;8.260;2023-02-11T00:26:14;41.77;;;25.37;;
26656;SDS011;14279;50.010;8.260;2023-02-11T00:28:45;48.47;;;27.37;;
26656;SDS011;14279;50.010;8.260;2023-02-11T00:31:12;52.53;;;29.10;;
26656;SDS011;14279;50.010;8.260;2023-02-11T00:33:38;48.97;;;28.27;;
26656;SDS011;14279;50.010;8.260;2023-02-11T00:36:04;41.47;;;25.03;;
26656;SDS011;14279;50.010;8.260;2023-02-11T00:38:31;41.37;;;22.83;;
26656;SDS011;14279;50.010;8.260;2023-02-11T00:40:56;46.70;;;24.27;;
26656;SDS011;14279;50.010;8.260;2023-02-11T00:43:21;40.50;;;23.23;;
26656;SDS011;14279;50.010;8.260;2023-02-11T00:45:46;41.73;;;24.27;;
26656;SDS011;14279;50.010;8.260;2023-02-11T00:48:12;42.30;;;22.80;;
26656;SDS011;14279;50.010;8.260;2023-02-11T00:50:38;43.40;;;24.00;;
26656;SDS011;14279;50.010;8.260;2023-02-11T00:53:03;40.90;;;24.40;;
26656;SDS011;14279;50.010;8.260;2023-02-11T00:55:29;46.07;;;24.10;;
26656;SDS011;14279;50.010;8.260;2023-02-11T00:57:54;45.07;;;24.60;;
26656;SDS011;14279;50.010;8.260;2023-02-11T01:00:20;40.57;;;23.60;;
26656;SDS011;14279;50.010;8.260;2023-02-11T01:02:46;42.60;;;24.90;;
26656;SDS011;14279;50.010;8.260;2023-02-11T01:05:11;44.93;;;24.97;;
26656;SDS011;14279;50.010;8.260;2023-02-11T01:07:36;46.07;;;24.97;;
26656;SDS011;14279;50.010;8.260;2023-02-11T01:10:02;49.60;;;24.73;;
26656;SDS011;14279;50.010;8.260;2023-02-11T01:12:28;40.73;;;23.67;;
26656;SDS011;14279;50.010;8.260;2023-02-11T01:14:53;41.03;;;24.50;;
26656;SDS011;14279;50.010;8.260;2023-02-11T01:17:18;44.30;;;24.73;;
26656;SDS011;14279;50.010;8.260;2023-02-11T01:19:44;42.73;;;25.60;;
26656;SDS011;14279;50.010;8.260;2023-02-11T01:22:09;44.43;;;26.57;;
26656;SDS011;14279;50.010;8.260;2023-02-11T01:24:34;46.20;;;26.20;;
26656;SDS011;14279;50.010;8.260;2023-02-11T01:26:59;51.30;;;26.20;;
26656;SDS011;14279;50.010;8.260;2023-02-11T01:29:25;42.13;;;25.33;;
26656;SDS011;14279;50.010;8.260;2023-02-11T01:31:50;41.23;;;24.80;;
26656;SDS011;14279;50.010;8.260;2023-02-11T01:34:16;47.73;;;25.53;;
26656;SDS011;14279;50.010;8.260;2023-02-11T01:36:41;42.57;;;24.73;;
26656;SDS011;14279;50.010;8.260;2023-02-11T01:39:07;42.97;;;24.50;;
26656;SDS011;14279;50.010;8.260;2023-02-11T01:41:35;41.33;;;25.77;;
26656;SDS011;14279;50.010;8.260;2023-02-11T01:46:51;48.50;;;26.13;;
26656;SDS011;14279;50.010;8.260;2023-02-11T01:49:35;60.90;;;29.07;;
26656;SDS011;14279;50.010;8.260;2023-02-11T01:52:14;46.47;;;26.53;;
26656;SDS011;14279;50.010;8.260;2023-02-11T01:54:48;46.53;;;25.87;;
26656;SDS011;14279;50.010;8.260;2023-02-11T01:57:39;46.00;;;25.20;;
26656;SDS011;14279;50.010;8.260;2023-02-11T02:02:48;42.90;;;26.30;;
26656;SDS011;14279;50.010;8.260;2023-02-11T02:08:03;47.47;;;25.00;;
26656;SDS011;14279;50.010;8.260;2023-02-11T02:10:34;48.60;;;27.03;;
26656;SDS011;14279;50.010;8.260;2023-02-11T02:13:03;45.53;;;25.70;;
26656;SDS011;14279;50.010;8.260;2023-02-11T02:15:32;39.00;;;24.80;;
26656;SDS011;14279;50.010;8.260;2023-02-11T02:18:05;49.20;;;24.70;;
26656;SDS011;14279;50.010;8.260;2023-02-11T02:26:53;47.90;;;26.10;;
26656;SDS011;14279;50.010;8.260;2023-02-11T02:35:10;52.57;;;27.37;;
26656;SDS011;14279;50.010;8.260;2023-02-11T02:40:13;58.70;;;27.70;;
26656;SDS011;14279;50.010;8.260;2023-02-11T02:42:43;50.73;;;26.40;;
26656;SDS011;14279;50.010;8.260;2023-02-11T02:45:09;45.53;;;27.20;;
26656;SDS011;14279;50.010;8.260;2023-02-11T02:47:36;43.53;;;25.27;;
26656;SDS011;14279;50.010;8.260;2023-02-11T02:50:02;48.80;;;27.13;;
26656;SDS011;14279;50.010;8.260;2023-02-11T03:00:58;45.80;;;25.10;;
26656;SDS011;14279;50.010;8.260;2023-02-11T03:03:53;54.93;;;26.57;;
26656;SDS011;14279;50.010;8.260;2023-02-11T03:09:50;44.47;;;26.70;;
26656;SDS011;14279;50.010;8.260;2023-02-11T03:12:20;48.03;;;26.30;;
26656;SDS011;14279;50.010;8.260;2023-02-11T03:14:49;50.30;;;26.30;;
26656;SDS011;14279;50.010;8.260;2023-02-11T03:17:15;53.30;;;30.10;;
26656;SDS011;14279;50.010;8.260;2023-02-11T03:19:41;54.47;;;31.20;;
26656;SDS011;14279;50.010;8.260;2023-02-11T03:22:11;52.60;;;31.10;;
26656;SDS011;14279;50.010;8.260;2023-02-11T03:24:41;61.37;;;31.33;;
26656;SDS011;14279;50.010;8.260;2023-02-11T03:27:14;54.20;;;30.27;;
26656;SDS011;14279;50.010;8.260;2023-02-11T03:29:48;50.00;;;29.57;;
26656;SDS011;14279;50.010;8.260;2023-02-11T03:32:23;51.83;;;30.47;;
26656;SDS011;14279;50.010;8.260;2023-02-11T03:34:53;53.57;;;30.77;;
26656;SDS011;14279;50.010;8.260;2023-02-11T03:37:26;56.23;;;30.70;;
26656;SDS011;14279;50.010;8.260;2023-02-11T03:40:09;53.37;;;30.60;;
26656;SDS011;14279;50.010;8.260;2023-02-11T03:42:39;54.90;;;30.30;;
26656;SDS011;14279;50.010;8.260;2023-02-11T03:45:10;47.20;;;28.77;;
26656;SDS011;14279;50.010;8.260;2023-02-11T03:47:40;53.97;;;30.70;;
26656;SDS011;14279;50.010;8.260;2023-02-11T03:50:11;51.70;;;30.57;;
26656;SDS011;14279;50.010;8.260;2023-02-11T03:52:38;46.70;;;27.17;;
26656;SDS011;14279;50.010;8.260;2023-02-11T03:55:05;50.53;;;30.03;;
26656;SDS011;14279;50.010;8.260;2023-02-11T03:57:35;52.97;;;30.23;;
26656;SDS011;14279;50.010;8.260;2023-02-11T04:00:00;52.93;;;29.63;;
26656;SDS011;14279;50.010;8.260;2023-02-11T04:02:27;50.17;;;29.30;;
26656;SDS011;14279;50.010;8.260;2023-02-11T04:04:55;53.97;;;28.30;;
26656;SDS011;14279;50.010;8.260;2023-02-11T04:07:21;56.20;;;30.40;;
26656;SDS011;14279;50.010;8.260;2023-02-11T04:09:46;46.20;;;27.83;;
26656;SDS011;14279;50.010;8.260;2023-02-11T04:12:12;50.20;;;28.20;;
26656;SDS011;14279;50.010;8.260;2023-02-11T04:14:37;49.50;;;28.23;;
26656;SDS011;14279;50.010;8.260;2023-02-11T04:17:02;54.13;;;28.50;;
26656;SDS011;14279;50.010;8.260;2023-02-11T04:19:28;52.77;;;29.10;;
26656;SDS011;14279;50.010;8.260;2023-02-11T04:21:53;53.40;;;29.10;;
26656;SDS011;14279;50.010;8.260;2023-02-11T04:24:18;51.17;;;29.97;;
26656;SDS011;14279;50.010;8.260;2023-02-11T04:26:43;49.13;;;28.83;;
26656;SDS011;14279;50.010;8.260;2023-02-11T04:29:09;56.70;;;29.80;;
26656;SDS011;14279;50.010;8.260;2023-02-11T04:31:34;56.23;;;30.20;;
26656;SDS011;14279;50.010;8.260;2023-02-11T04:33:59;54.10;;;32.40;;
26656;SDS011;14279;50.010;8.260;2023-02-11T04:36:24;58.87;;;30.23;;
26656;SDS011;14279;50.010;8.260;2023-02-11T04:38:50;53.23;;;31.47;;
26656;SDS011;14279;50.010;8.260;2023-02-11T04:41:15;52.50;;;30.30;;
26656;SDS011;14279;50.010;8.260;2023-02-11T04:43:40;49.87;;;29.60;;
26656;SDS011;14279;50.010;8.260;2023-02-11T04:46:05;53.47;;;29.13;;
26656;SDS011;14279;50.010;8.260;2023-02-11T04:48:30;57.30;;;31.10;;
26656;SDS011;14279;50.010;8.260;2023-02-11T04:50:56;51.30;;;31.13;;
26656;SDS011;14279;50.010;8.260;2023-02-11T04:53:21;56.03;;;31.27;;
26656;SDS011;14279;50.010;8.260;2023-02-11T04:55:49;47.33;;;30.10;;
26656;SDS011;14279;50.010;8.260;2023-02-11T04:58:15;58.00;;;33.13;;
26656;SDS011;14279;50.010;8.260;2023-02-11T05:00:41;61.00;;;32.17;;
26656;SDS011;14279;50.010;8.260;2023-02-11T05:03:07;51.07;;;32.90;;
26656;SDS011;14279;50.010;8.260;2023-02-11T05:05:32;56.67;;;32.23;;
26656;SDS011;14279;50.010;8.260;2023-02-11T05:07:57;58.47;;;34.03;;
26656;SDS011;14279;50.010;8.260;2023-02-11T05:10:22;59.37;;;33.87;;
26656;SDS011;14279;50.010;8.260;2023-02-11T05:12:48;56.60;;;33.07;;
26656;SDS011;14279;50.010;8.260;2023-02-11T05:15:13;56.23;;;33.40;;
26656;SDS011;14279;50.010;8.260;2023-02-11T05:17:39;51.57;;;32.30;;
26656;SDS011;14279;50.010;8.260;2023-02-11T05:20:04;57.03;;;33.53;;
26656;SDS011;14279;50.010;8.260;2023-02-11T05:22:30;52.40;;;30.47;;
26656;SDS011;14279;50.010;8.260;2023-02-11T05:24:55;55.43;;;32.70;;
26656;SDS011;14279;50.010;8.260;2023-02-11T05:27:20;57.87;;;31.90;;
26656;SDS011;14279;50.010;8.260;2023-02-11T05:29:45;50.37;;;30.07;;
26656;SDS011;14279;50.010;8.260;2023-02-11T05:32:11;58.77;;;32.30;;
26656;SDS011;14279;50.010;8.260;2023-02-11T05:34:36;55.57;;;33.00;;
26656;SDS011;14279;50.010;8.260;2023-02-11T05:37:01;64.53;;;32.20;;
26656;SDS011;14279;50.010;8.260;2023-02-11T05:39:26;52.37;;;31.50;;
26656;SDS011;14279;50.010;8.260;2023-02-11T05:41:52;54.90;;;30.50;;
26656;SDS011;14279;50.010;8.260;2023-02-11T05:44:17;55.47;;;31.00;;
26656;SDS011;14279;50.010;8.260;2023-02-11T05:46:42;52.83;;;30.67;;
26656;SDS011;14279;50.010;8.260;2023-02-11T05:49:07;56.10;;;33.03;;
26656;SDS011;14279;50.010;8.260;2023-02-11T05:51:33;52.67;;;33.27;;
26656;SDS011;14279;50.010;8.260;2023-02-11T05:53:58;51.67;;;31.50;;
26656;SDS011;14279;50.010;8.260;2023-02-11T05:56:23;48.37;;;28.97;;
26656;SDS011;14279;50.010;8.260;2023-02-11T05:58:48;50.43;;;31.20;;
26656;SDS011;14279;50.010;8.260;2023-02-11T06:01:14;59.30;;;28.83;;
26656;SDS011;14279;50.010;8.260;2023-02-11T06:03:39;47.97;;;29.13;;
26656;SDS011;14279;50.010;8.260;2023-02-11T06:06:08;54.03;;;30.60;;
26656;SDS011;14279;50.010;8.260;2023-02-11T06:08:34;53.63;;;29.57;;
26656;SDS011;14279;50.010;8.260;2023-02-11T06:10:59;43.67;;;27.33;;
26656;SDS011;14279;50.010;8.260;2023-02-11T06:13:24;51.80;;;28.30;;
26656;SDS011;14279;50.010;8.260;2023-02-11T06:15:56;55.60;;;30.00;;
26656;SDS011;14279;50.010;8.260;2023-02-11T06:18:22;48.60;;;29.73;;
26656;SDS011;14279;50.010;8.260;2023-02-11T06:20:47;51.10;;;29.27;;
26656;SDS011;14279;50.010;8.260;2023-02-11T06:23:12;46.13;;;28.30;;
26656;SDS011;14279;50.010;8.260;2023-02-11T06:25:38;54.30;;;29.47;;
26656;SDS011;14279;50.010;8.260;2023-02-11T06:28:03;47.37;;;28.83;;
26656;SDS011;14279;50.010;8.260;2023-02-11T06:30:28;55.50;;;29.17;;
26656;SDS011;14279;50.010;8.260;2023-02-11T06:32:53;46.90;;;27.90;;
26656;SDS011;14279;50.010;8.260;2023-02-11T06:35:19;44.27;;;27.27;;
26656;SDS011;14279;50.010;8.260;2023-02-11T06:37:44;46.50;;;26.90;;
26656;SDS011;14279;50.010;8.260;2023-02-11T06:40:10;47.40;;;29.03;;
26656;SDS011;14279;50.010;8.260;2023-02-11T06:42:36;50.90;;;29.60;;
26656;SDS011;14279;50.010;8.260;2023-02-11T06:45:04;51.80;;;26.20;;
26656;SDS011;14279;50.010;8.260;2023-02-11T06:47:32;57.27;;;26.30;;
26656;SDS011;14279;50.010;8.260;2023-02-11T06:49:58;41.77;;;25.20;;
26656;SDS011;14279;50.010;8.260;2023-02-11T06:52:23;49.00;;;25.83;;
26656;SDS011;14279;50.010;8.260;2023-02-11T06:55:00;45.20;;;26.57;;
26656;SDS011;14279;50.010;8.260;2023-02-11T06:57:26;51.30;;;24.50;;
26656;SDS011;14279;50.010;8.260;2023-02-11T07:07:07;46.17;;;24.00;;
26656;SDS011;14279;50.010;8.260;2023-02-11T07:09:57;45.10;;;26.03;;
26656;SDS011;14279;50.010;8.260;2023-02-11T07:12:40;41.97;;;23.30;;
26656;SDS011;14279;50.010;8.260;2023-02-11T07:15:06;44.00;;;25.20;;
26656;SDS011;14279;50.010;8.260;2023-02-11T07:17:32;41.83;;;26.50;;
26656;SDS011;14279;50.010;8.260;2023-02-11T07:19:58;44.03;;;25.93;;
26656;SDS011;14279;50.010;8.260;2023-02-11T07:22:23;45.10;;;27.70;;
26656;SDS011;14279;50.010;8.260;2023-02-11T07:24:49;38.33;;;25.30;;
26656;SDS011;14279;50.010;8.260;2023-02-11T07:33:40;41.20;;;25.23;;
26656;SDS011;14279;50.010;8.260;2023-02-11T07:36:09;56.80;;;28.07;;
26656;SDS011;14279;50.010;8.260;2023-02-11T07:38:59;53.30;;;27.40;;
26656;SDS011;14279;50.010;8.260;2023-02-11T07:43:54;51.13;;;26.47;;
26656;SDS011;14279;50.010;8.260;2023-02-11T07:46:21;44.03;;;25.60;;
26656;SDS011;14279;50.010;8.260;2023-02-11T07:48:48;45.37;;;26.90;;
26656;SDS011;14279;50.010;8.260;2023-02-11T07:54:35;48.87;;;26.43;;
26656;SDS011;14279;50.010;8.260;2023-02-11T08:00:16;39.93;;;24.50;;
26656;SDS011;14279;50.010;8.260;2023-02-11T08:02:41;43.83;;;24.77;;
26656;SDS011;14279;50.010;8.260;2023-02-11T08:05:07;42.00;;;25.07;;
26656;SDS011;14279;50.010;8.260;2023-02-11T08:07:32;44.70;;;26.20;;
26656;SDS011;14279;50.010;8.260;2023-02-11T08:09:57;41.53;;;25.53;;
26656;SDS011;14279;50.010;8.260;2023-02-11T08:12:23;46.60;;;24.83;;
26656;SDS011;14279;50.010;8.260;2023-02-11T08:14:48;42.40;;;25.47;;
26656;SDS011;14279;50.010;8.260;2023-02-11T08:17:13;45.10;;;26.30;;
26656;SDS011;14279;50.010;8.260;2023-02-11T08:19:39;44.47;;;26.53;;
26656;SDS011;14279;50.010;8.260;2023-02-11T08:22:04;49.03;;;26.80;;
26656;SDS011;14279;50.010;8.260;2023-02-11T08:24:35;44.40;;;25.33;;
26656;SDS011;14279;50.010;8.260;2023-02-11T08:27:03;44.40;;;27.27;;
26656;SDS011;14279;50.010;8.260;2023-02-11T08:29:34;40.13;;;24.83;;
26656;SDS011;14279;50.010;8.260;2023-02-11T08:32:00;42.80;;;26.33;;
26656;SDS011;14279;50.010;8.260;2023-02-11T08:34:25;48.93;;;25.97;;
26656;SDS011;14279;50.010;8.260;2023-02-11T08:36:50;55.23;;;26.20;;
26656;SDS011;14279;50.010;8.260;2023-02-11T08:39:17;46.10;;;26.10;;
26656;SDS011;14279;50.010;8.260;2023-02-11T08:41:44;40.10;;;25.17;;
26656;SDS011;14279;50.010;8.260;2023-02-11T08:44:13;43.10;;;26.73;;
26656;SDS011;14279;50.010;8.260;2023-02-11T08:46:39;46.33;;;26.90;;
26656;SDS011;14279;50.010;8.260;2023-02-11T08:49:05;46.20;;;26.77;;
26656;SDS011;14279;50.010;8.260;2023-02-11T08:51:30;40.77;;;24.93;;
26656;SDS011;14279;50.010;8.260;2023-02-11T08:53:56;44.03;;;25.77;;
26656;SDS011;14279;50.010;8.260;2023-02-11T08:56:22;58.03;;;29.10;;
26656;SDS011;14279;50.010;8.260;2023-02-11T08:58:47;51.17;;;29.30;;
26656;SDS011;14279;50.010;8.260;2023-02-11T09:01:32;45.50;;;27.97;;
26656;SDS011;14279;50.010;8.260;2023-02-11T09:03:57;45.20;;;27.23;;
26656;SDS011;14279;50.010;8.260;2023-02-11T09:06:23;45.23;;;25.83;;
26656;SDS011;14279;50.010;8.260;2023-02-11T09:08:51;60.73;;;28.23;;
26656;SDS011;14279;50.010;8.260;2023-02-11T09:11:33;50.97;;;25.83;;
26656;SDS011;14279;50.010;8.260;2023-02-11T09:14:00;49.37;;;26.30;;
26656;SDS011;14279;50.010;8.260;2023-02-11T09:19:54;45.47;;;26.27;;
26656;SDS011;14279;50.010;8.260;2023-02-11T09:48:11;31.90;;;20.10;;
26656;SDS011;14279;50.010;8.260;2023-02-11T09:57:20;33.53;;;21.40;;
26656;SDS011;14279;50.010;8.260;2023-02-11T09:59:46;34.83;;;21.47;;
26656;SDS011;14279;50.010;8.260;2023-02-11T10:08:07;32.70;;;21.40;;
26656;SDS011;14279;50.010;8.260;2023-02-11T10:10:51;34.67;;;21.67;;
26656;SDS011;14279;50.010;8.260;2023-02-11T10:22:33;29.57;;;20.30;;
26656;SDS011;14279;50.010;8.260;2023-02-11T10:27:51;30.60;;;19.50;;
26656;SDS011;14279;50.010;8.260;2023-02-11T10:30:25;36.90;;;21.30;;
26656;SDS011;14279;50.010;8.260;2023-02-11T10:36:11;34.60;;;23.50;;
26656;SDS011;14279;50.010;8.260;2023-02-11T10:38:38;35.30;;;22.53;;
26656;SDS011;14279;50.010;8.260;2023-02-11T10:41:03;35.70;;;21.57;;
26656;SDS011;14279;50.010;8.260;2023-02-11T11:00:35;39.73;;;21.47;;
26656;SDS011;14279;50.010;8.260;2023-02-11T11:03:06;39.53;;;19.30;;
26656;SDS011;14279;50.010;8.260;2023-02-11T11:06:01;37.07;;;20.00;;
26656;SDS011;14279;50.010;8.260;2023-02-11T11:08:41;34.60;;;19.57;;
26656;SDS011;14279;50.010;8.260;2023-02-11T11:11:11;32.20;;;20.50;;
26656;SDS011;14279;50.010;8.260;2023-02-11T11:13:41;35.10;;;19.23;;
26656;SDS011;14279;50.010;8.260;2023-02-11T11:16:19;34.53;;;19.60;;
26656;SDS011;14279;50.010;8.260;2023-02-11T11:21:36;32.70;;;18.97;;
26656;SDS011;14279;50.010;8.260;2023-02-11T11:24:12;33.57;;;19.40;;
26656;SDS011;14279;50.010;8.260;2023-02-11T11:26:52;30.50;;;19.43;;
26656;SDS011;14279;50.010;8.260;2023-02-11T11:29:29;31.80;;;19.10;;
26656;SDS011;14279;50.010;8.260;2023-02-11T11:31:59;29.77;;;18.37;;
26656;SDS011;14279;50.010;8.260;2023-02-11T11:34:48;30.73;;;19.87;;
26656;SDS011;14279;50.010;8.260;2023-02-11T11:37:28;32.90;;;17.43;;
26656;SDS011;14279;50.010;8.260;2023-02-11T11:39:56;31.50;;;18.80;;
26656;SDS011;14279;50.010;8.260;2023-02-11T11:42:27;26.87;;;18.10;;
26656;SDS011;14279;50.010;8.260;2023-02-11T11:45:17;25.93;;;17.33;;
26656;SDS011;14279;50.010;8.260;2023-02-11T11:50:33;38.03;;;18.43;;
26656;SDS011;14279;50.010;8.260;2023-02-11T11:53:12;30.03;;;17.13;;
26656;SDS011;14279;50.010;8.260;2023-02-11T11:56:08;27.10;;;17.60;;
26656;SDS011;14279;50.010;8.260;2023-02-11T11:58:33;32.53;;;18.27;;
26656;SDS011;14279;50.010;8.260;2023-02-11T12:01:06;30.73;;;17.23;;
26656;SDS011;14279;50.010;8.260;2023-02-11T12:06:29;25.90;;;16.20;;
26656;SDS011;14279;50.010;8.260;2023-02-11T12:09:08;26.37;;;14.97;;
26656;SDS011;14279;50.010;8.260;2023-02-11T12:15:03;24.13;;;14.80;;
26656;SDS011;14279;50.010;8.260;2023-02-11T12:20:28;25.20;;;15.80;;
26656;SDS011;14279;50.010;8.260;2023-02-11T12:26:06;26.40;;;16.43;;
26656;SDS011;14279;50.010;8.260;2023-02-11T12:28:51;24.30;;;16.00;;
26656;SDS011;14279;50.010;8.260;2023-02-11T12:34:25;26.70;;;16.10;;
26656;SDS011;14279;50.010;8.260;2023-02-11T12:53:09;22.40;;;14.13;;
26656;SDS011;14279;50.010;8.260;2023-02-11T12:55:41;18.60;;;12.53;;
26656;SDS011;14279;50.010;8.260;2023-02-11T12:58:20;16.33;;;11.00;;
26656;SDS011;14279;50.010;8.260;2023-02-11T13:00:50;17.93;;;11.30;;
26656;SDS011;14279;50.010;8.260;2023-02-11T13:06:21;16.90;;;9.87;;
26656;SDS011;14279;50.010;8.260;2023-02-11T13:08:53;18.70;;;11.50;;
26656;SDS011;14279;50.010;8.260;2023-02-11T13:11:26;16.23;;;11.33;;
26656;SDS011;14279;50.010;8.260;2023-02-11T13:13:59;16.80;;;10.87;;
26656;SDS011;14279;50.010;8.260;2023-02-11T13:22:23;18.73;;;11.57;;
26656;SDS011;14279;50.010;8.260;2023-02-11T13:24:41;16.17;;;9.97;;
26656;SDS011;14279;50.010;8.260;2023-02-11T13:38:20;18.70;;;12.07;;
26656;SDS011;14279;50.010;8.260;2023-02-11T13:41:12;18.97;;;12.50;;
26656;SDS011;14279;50.010;8.260;2023-02-11T13:43:39;19.50;;;12.50;;
26656;SDS011;14279;50.010;8.260;2023-02-11T13:46:09;17.53;;;12.67;;
26656;SDS011;14279;50.010;8.260;2023-02-11T13:48:36;19.87;;;13.43;;
26656;SDS011;14279;50.010;8.260;2023-02-11T13:51:14;16.47;;;11.20;;
26656;SDS011;14279;50.010;8.260;2023-02-11T14:02:19;13.97;;;8.70;;
26656;SDS011;14279;50.010;8.260;2023-02-11T14:10:51;12.60;;;7.87;;
26656;SDS011;14279;50.010;8.260;2023-02-11T14:13:29;14.10;;;8.90;;
26656;SDS011;14279;50.010;8.260;2023-02-11T14:16:18;11.97;;;8.40;;
26656;SDS011;14279;50.010;8.260;2023-02-11T14:24:38;15.27;;;8.90;;
26656;SDS011;14279;50.010;8.260;2023-02-11T14:26:45;14.07;;;9.53;;
26656;SDS011;14279;50.010;8.260;2023-02-11T14:36:53;15.60;;;9.70;;
26656;SDS011;14279;50.010;8.260;2023-02-11T14:39:45;13.97;;;8.87;;
26656;SDS011;14279;50.010;8.260;2023-02-11T14:42:25;12.87;;;9.00;;
26656;SDS011;14279;50.010;8.260;2023-02-11T14:44:54;16.93;;;10.10;;
26656;SDS011;14279;50.010;8.260;2023-02-11T14:47:23;14.43;;;9.80;;
26656;SDS011;14279;50.010;8.260;2023-02-11T14:49:54;19.27;;;9.57;;
26656;SDS011;14279;50.010;8.260;2023-02-11T14:54:51;15.17;;;10.97;;
26656;SDS011;14279;50.010;8.260;2023-02-11T14:57:29;13.93;;;9.70;;
26656;SDS011;14279;50.010;8.260;2023-02-11T14:59:58;15.30;;;9.60;;
26656;SDS011;14279;50.010;8.260;2023-02-11T15:02:33;14.43;;;9.87;;
26656;SDS011;14279;50.010;8.260;2023-02-11T15:07:51;12.87;;;9.60;;
26656;SDS011;14279;50.010;8.260;2023-02-11T15:10:35;15.33;;;10.23;;
26656;SDS011;14279;50.010;8.260;2023-02-11T15:13:05;13.70;;;9.80;;
26656;SDS011;14279;50.010;8.260;2023-02-11T15:15:32;12.43;;;8.80;;
26656;SDS011;14279;50.010;8.260;2023-02-11T15:18:00;12.83;;;9.50;;
26656;SDS011;14279;50.010;8.260;2023-02-11T15:20:28;15.60;;;10.27;;
26656;SDS011;14279;50.010;8.260;2023-02-11T15:22:57;19.17;;;9.50;;
26656;SDS011;14279;50.010;8.260;2023-02-11T15:25:25;14.23;;;9.00;;
26656;SDS011;14279;50.010;8.260;2023-02-11T15:27:52;11.40;;;8.07;;
26656;SDS011;14279;50.010;8.260;2023-02-11T15:32:45;13.40;;;9.13;;
26656;SDS011;14279;50.010;8.260;2023-02-11T15:35:12;15.57;;;9.60;;
26656;SDS011;14279;50.010;8.260;2023-02-11T15:37:38;13.13;;;9.07;;
26656;SDS011;14279;50.010;8.260;2023-02-11T15:40:08;13.17;;;9.43;;
26656;SDS011;14279;50.010;8.260;2023-02-11T15:45:43;12.60;;;9.20;;
26656;SDS011;14279;50.010;8.260;2023-02-11T15:48:22;12.23;;;8.70;;
26656;SDS011;14279;50.010;8.260;2023-02-11T15:50:57;14.70;;;7.70;;
26656;SDS011;14279;50.010;8.260;2023-02-11T15:53:33;13.13;;;8.43;;
26656;SDS011;14279;50.010;8.260;2023-02-11T15:58:37;14.50;;;9.77;;
26656;SDS011;14279;50.010;8.260;2023-02-11T16:01:04;12.47;;;8.20;;
26656;SDS011;14279;50.010;8.260;2023-02-11T16:03:31;11.87;;;8.03;;
26656;SDS011;14279;50.010;8.260;2023-02-11T16:11:36;14.20;;;8.97;;
26656;SDS011;14279;50.010;8.260;2023-02-11T16:17:04;12.00;;;8.43;;
26656;SDS011;14279;50.010;8.260;2023-02-11T16:19:46;10.40;;;8.20;;
26656;SDS011;14279;50.010;8.260;2023-02-11T16:22:15;12.63;;;8.90;;
26656;SDS011;14279;50.010;8.260;2023-02-11T16:24:47;11.33;;;7.37;;
26656;SDS011;14279;50.010;8.260;2023-02-11T16:27:25;11.80;;;8.00;;
26656;SDS011;14279;50.010;8.260;2023-02-11T16:29:52;14.90;;;8.47;;
26656;SDS011;14279;50.010;8.260;2023-02-11T16:32:22;13.03;;;8.63;;
26656;SDS011;14279;50.010;8.260;2023-02-11T16:34:53;10.83;;;8.17;;
26656;SDS011;14279;50.010;8.260;2023-02-11T16:37:22;13.33;;;8.33;;
26656;SDS011;14279;50.010;8.260;2023-02-11T16:39:48;11.20;;;7.40;;
26656;SDS011;14279;50.010;8.260;2023-02-11T16:42:13;16.23;;;8.80;;
26656;SDS011;14279;50.010;8.260;2023-02-11T16:48:00;12.50;;;7.20;;
26656;SDS011;14279;50.010;8.260;2023-02-11T16:50:26;9.70;;;7.30;;
26656;SDS011;14279;50.010;8.260;2023-02-11T16:52:51;9.43;;;6.90;;
26656;SDS011;14279;50.010;8.260;2023-02-11T16:55:17;10.77;;;6.80;;
26656;SDS011;14279;50.010;8.260;2023-02-11T16:57:42;9.80;;;7.00;;
26656;SDS011;14279;50.010;8.260;2023-02-11T17:00:08;8.57;;;6.60;;
26656;SDS011;14279;50.010;8.260;2023-02-11T17:02:35;8.50;;;6.50;;
26656;SDS011;14279;50.010;8.260;2023-02-11T17:05:06;9.63;;;6.10;;
26656;SDS011;14279;50.010;8.260;2023-02-11T17:07:39;18.23;;;8.63;;
26656;SDS011;14279;50.010;8.260;2023-02-11T17:10:12;11.90;;;7.50;;
26656;SDS011;14279;50.010;8.260;2023-02-11T17:12:42;14.77;;;10.20;;
26656;SDS011;14279;50.010;8.260;2023-02-11T17:15:07;17.13;;;12.13;;
26656;SDS011;14279;50.010;8.260;2023-02-11T17:17:33;22.00;;;13.07;;
26656;SDS011;14279;50.010;8.260;2023-02-11T17:19:58;21.77;;;14.10;;
26656;SDS011;14279;50.010;8.260;2023-02-11T17:22:23;25.70;;;14.03;;
26656;SDS011;14279;50.010;8.260;2023-02-11T17:24:49;26.13;;;15.20;;
26656;SDS011;14279;50.010;8.260;2023-02-11T17:27:14;27.20;;;16.23;;
26656;SDS011;14279;50.010;8.260;2023-02-11T17:29:40;29.10;;;17.20;;
26656;SDS011;14279;50.010;8.260;2023-02-11T17:32:05;21.77;;;14.63;;
26656;SDS011;14279;50.010;8.260;2023-02-11T17:34:30;27.83;;;17.23;;
26656;SDS011;14279;50.010;8.260;2023-02-11T17:36:56;28.87;;;15.80;;
26656;SDS011;14279;50.010;8.260;2023-02-11T17:39:23;26.40;;;16.70;;
26656;SDS011;14279;50.010;8.260;2023-02-11T17:41:48;23.30;;;14.70;;
26656;SDS011;14279;50.010;8.260;2023-02-11T17:44:14;26.30;;;15.97;;
26656;SDS011;14279;50.010;8.260;2023-02-11T17:46:40;22.43;;;14.40;;
26656;SDS011;14279;50.010;8.260;2023-02-11T17:49:06;21.60;;;14.63;;
26656;SDS011;14279;50.010;8.260;2023-02-11T17:51:35;23.47;;;15.10;;
26656;SDS011;14279;50.010;8.260;2023-02-11T17:54:04;24.17;;;15.20;;
26656;SDS011;14279;50.010;8.260;2023-02-11T17:56:31;21.77;;;14.03;;
26656;SDS011;14279;50.010;8.260;2023-02-11T17:58:57;26.63;;;14.43;;
26656;SDS011;14279;50.010;8.260;2023-02-11T18:01:25;20.93;;;13.20;;
26656;SDS011;14279;50.010;8.260;2023-02-11T18:03:51;24.37;;;13.93;;
26656;SDS011;14279;50.010;8.260;2023-02-11T18:06:16;22.07;;;14.17;;
26656;SDS011;14279;50.010;8.260;2023-02-11T18:08:43;20.43;;;13.53;;
26656;SDS011;14279;50.010;8.260;2023-02-11T18:11:09;22.50;;;14.37;;
26656;SDS011;14279;50.010;8.260;2023-02-11T18:13:35;22.47;;;13.63;;
26656;SDS011;14279;50.010;8.260;2023-02-11T18:16:01;24.57;;;16.03;;
26656;SDS011;14279;50.010;8.260;2023-02-11T18:18:28;24.70;;;15.50;;
26656;SDS011;14279;50.010;8.260;2023-02-11T18:21:00;22.17;;;14.30;;
26656;SDS011;14279;50.010;8.260;2023-02-11T18:23:27;22.63;;;14.23;;
26656;SDS011;14279;50.010;8.260;2023-02-11T18:25:53;21.73;;;13.30;;
26656;SDS011;14279;50.010;8.260;2023-02-11T18:28:18;27.67;;;15.10;;
26656;SDS011;14279;50.010;8.260;2023-02-11T18:30:44;23.47;;;14.50;;
26656;SDS011;14279;50.010;8.260;2023-02-11T18:33:09;22.00;;;13.70;;
26656;SDS011;14279;50.010;8.260;2023-02-11T18:35:38;23.07;;;14.10;;